sensor_id;sensor_type;location;lat;lon;timestamp;P1;durP1;ratioP1;P2;durP2;ratioP2
64907;SDS011;51412;52.236;5.188;2022-09-09T00:01:11;3.13;;;2.53;;
64907;SDS011;51412;52.236;5.188;2022-09-09T00:03:52;3.10;;;2.45;;
64907;SDS011;51412;52.236;5.188;2022-09-09T00:06:23;3.80;;;2.47;;
64907;SDS011;51412;52.236;5.188;2022-09-09T00:08:58;5.95;;;2.80;;
64907;SDS011;51412;52.236;5.188;2022-09-09T00:11:30;5.28;;;3.00;;
64907;SDS011;51412;52.236;5.188;2022-09-09T00:14:08;4.43;;;2.53;;
64907;SDS011;51412;52.236;5.188;2022-09-09T00:16:43;4.63;;;2.60;;
64907;SDS011;51412;52.236;5.188;2022-09-09T00:19:19;4.30;;;2.83;;
64907;SDS011;51412;52.236;5.188;2022-09-09T00:21:52;6.75;;;2.85;;
64907;SDS011;51412;52.236;5.188;2022-09-09T00:24:29;6.28;;;2.78;;
64907;SDS011;51412;52.236;5.188;2022-09-09T00:27:04;4.15;;;3.15;;
64907;SDS011;51412;52.236;5.188;2022-09-09T00:29:35;6.10;;;3.17;;
64907;SDS011;51412;52.236;5.188;2022-09-09T00:32:11;7.05;;;2.63;;
64907;SDS011;51412;52.236;5.188;2022-09-09T00:34:44;6.25;;;2.75;;
64907;SDS011;51412;52.236;5.188;2022-09-09T00:37:14;6.40;;;3.50;;
64907;SDS011;51412;52.236;5.188;2022-09-09T00:39:41;5.15;;;3.05;;
64907;SDS011;51412;52.236;5.188;2022-09-09T00:42:13;5.00;;;3.08;;
64907;SDS011;51412;52.236;5.188;2022-09-09T00:44:46;5.22;;;3.60;;
64907;SDS011;51412;52.236;5.188;2022-09-09T00:47:28;6.30;;;3.20;;
64907;SDS011;51412;52.236;5.188;2022-09-09T00:50:09;5.47;;;3.05;;
64907;SDS011;51412;52.236;5.188;2022-09-09T00:52:44;9.07;;;3.03;;
64907;SDS011;51412;52.236;5.188;2022-09-09T00:55:16;4.25;;;2.75;;
64907;SDS011;51412;52.236;5.188;2022-09-09T00:57:47;6.37;;;3.17;;
64907;SDS011;51412;52.236;5.188;2022-09-09T01:00:22;4.38;;;3.10;;
64907;SDS011;51412;52.236;5.188;2022-09-09T01:02:56;5.40;;;3.00;;
64907;SDS011;51412;52.236;5.188;2022-09-09T01:08:02;7.75;;;3.03;;
64907;SDS011;51412;52.236;5.188;2022-09-09T01:10:39;7.15;;;3.58;;
64907;SDS011;51412;52.236;5.188;2022-09-09T01:13:15;5.43;;;3.45;;
64907;SDS011;51412;52.236;5.188;2022-09-09T01:15:47;6.68;;;3.78;;
64907;SDS011;51412;52.236;5.188;2022-09-09T01:18:17;4.85;;;3.28;;
64907;SDS011;51412;52.236;5.188;2022-09-09T01:20:47;4.72;;;3.47;;
64907;SDS011;51412;52.236;5.188;2022-09-09T01:26:28;5.28;;;3.60;;
64907;SDS011;51412;52.236;5.188;2022-09-09T01:28:58;5.55;;;3.60;;
64907;SDS011;51412;52.236;5.188;2022-09-09T01:31:26;7.53;;;3.90;;
64907;SDS011;51412;52.236;5.188;2022-09-09T01:33:56;4.90;;;3.50;;
64907;SDS011;51412;52.236;5.188;2022-09-09T01:36:25;8.88;;;4.07;;
64907;SDS011;51412;52.236;5.188;2022-09-09T01:38:56;6.70;;;3.92;;
64907;SDS011;51412;52.236;5.188;2022-09-09T01:41:23;8.30;;;3.80;;
64907;SDS011;51412;52.236;5.188;2022-09-09T01:43:52;4.88;;;3.45;;
64907;SDS011;51412;52.236;5.188;2022-09-09T01:46:20;6.43;;;3.60;;
64907;SDS011;51412;52.236;5.188;2022-09-09T01:48:48;5.95;;;3.80;;
64907;SDS011;51412;52.236;5.188;2022-09-09T01:51:16;5.63;;;3.97;;
64907;SDS011;51412;52.236;5.188;2022-09-09T01:53:42;7.18;;;4.30;;
64907;SDS011;51412;52.236;5.188;2022-09-09T01:56:12;6.90;;;3.95;;
64907;SDS011;51412;52.236;5.188;2022-09-09T01:58:54;6.22;;;4.35;;
64907;SDS011;51412;52.236;5.188;2022-09-09T02:01:33;6.55;;;4.57;;
64907;SDS011;51412;52.236;5.188;2022-09-09T02:04:08;5.75;;;3.80;;
64907;SDS011;51412;52.236;5.188;2022-09-09T02:06:48;6.38;;;4.40;;
64907;SDS011;51412;52.236;5.188;2022-09-09T02:09:18;6.53;;;4.25;;
64907;SDS011;51412;52.236;5.188;2022-09-09T02:11:48;7.88;;;4.90;;
64907;SDS011;51412;52.236;5.188;2022-09-09T02:14:26;6.07;;;4.25;;
64907;SDS011;51412;52.236;5.188;2022-09-09T02:16:56;7.05;;;4.38;;
64907;SDS011;51412;52.236;5.188;2022-09-09T02:19:29;6.78;;;4.60;;
64907;SDS011;51412;52.236;5.188;2022-09-09T02:21:59;6.95;;;4.43;;
64907;SDS011;51412;52.236;5.188;2022-09-09T02:24:27;9.93;;;4.80;;
64907;SDS011;51412;52.236;5.188;2022-09-09T02:26:56;10.23;;;5.05;;
64907;SDS011;51412;52.236;5.188;2022-09-09T02:29:28;10.07;;;5.13;;
64907;SDS011;51412;52.236;5.188;2022-09-09T02:34:28;6.47;;;4.57;;
64907;SDS011;51412;52.236;5.188;2022-09-09T02:36:57;7.18;;;5.15;;
64907;SDS011;51412;52.236;5.188;2022-09-09T02:39:26;8.32;;;5.25;;
64907;SDS011;51412;52.236;5.188;2022-09-09T02:41:53;7.03;;;4.80;;
64907;SDS011;51412;52.236;5.188;2022-09-09T02:44:19;7.50;;;4.53;;
64907;SDS011;51412;52.236;5.188;2022-09-09T02:46:52;9.95;;;5.05;;
64907;SDS011;51412;52.236;5.188;2022-09-09T02:49:33;8.63;;;4.78;;
64907;SDS011;51412;52.236;5.188;2022-09-09T02:52:11;11.38;;;5.00;;
64907;SDS011;51412;52.236;5.188;2022-09-09T02:54:41;11.27;;;5.07;;
64907;SDS011;51412;52.236;5.188;2022-09-09T02:57:10;8.07;;;4.90;;
64907;SDS011;51412;52.236;5.188;2022-09-09T02:59:38;11.80;;;4.95;;
64907;SDS011;51412;52.236;5.188;2022-09-09T03:02:06;9.85;;;5.85;;
64907;SDS011;51412;52.236;5.188;2022-09-09T03:04:32;8.05;;;5.22;;
64907;SDS011;51412;52.236;5.188;2022-09-09T03:06:59;8.43;;;5.28;;
64907;SDS011;51412;52.236;5.188;2022-09-09T03:09:26;8.65;;;5.45;;
64907;SDS011;51412;52.236;5.188;2022-09-09T03:11:52;9.80;;;5.35;;
64907;SDS011;51412;52.236;5.188;2022-09-09T03:14:20;9.77;;;5.13;;
64907;SDS011;51412;52.236;5.188;2022-09-09T03:16:49;7.07;;;5.28;;
64907;SDS011;51412;52.236;5.188;2022-09-09T03:19:17;7.28;;;4.78;;
64907;SDS011;51412;52.236;5.188;2022-09-09T03:21:44;9.85;;;4.93;;
64907;SDS011;51412;52.236;5.188;2022-09-09T03:24:11;7.57;;;4.72;;
64907;SDS011;51412;52.236;5.188;2022-09-09T03:26:38;5.90;;;4.57;;
64907;SDS011;51412;52.236;5.188;2022-09-09T03:29:05;9.00;;;5.10;;
64907;SDS011;51412;52.236;5.188;2022-09-09T03:31:32;7.10;;;4.70;;
64907;SDS011;51412;52.236;5.188;2022-09-09T03:33:59;8.95;;;5.65;;
64907;SDS011;51412;52.236;5.188;2022-09-09T03:36:27;7.72;;;5.10;;
64907;SDS011;51412;52.236;5.188;2022-09-09T03:38:54;10.05;;;5.63;;
64907;SDS011;51412;52.236;5.188;2022-09-09T03:41:21;8.73;;;5.25;;
64907;SDS011;51412;52.236;5.188;2022-09-09T03:43:48;8.43;;;5.13;;
64907;SDS011;51412;52.236;5.188;2022-09-09T03:46:15;8.00;;;4.90;;
64907;SDS011;51412;52.236;5.188;2022-09-09T03:48:41;8.90;;;5.03;;
64907;SDS011;51412;52.236;5.188;2022-09-09T03:51:09;6.70;;;5.07;;
64907;SDS011;51412;52.236;5.188;2022-09-09T03:53:37;8.30;;;4.90;;
64907;SDS011;51412;52.236;5.188;2022-09-09T03:56:04;10.10;;;5.32;;
64907;SDS011;51412;52.236;5.188;2022-09-09T03:58:31;7.35;;;4.88;;
64907;SDS011;51412;52.236;5.188;2022-09-09T04:01:00;7.43;;;4.65;;
64907;SDS011;51412;52.236;5.188;2022-09-09T04:03:28;9.23;;;5.18;;
64907;SDS011;51412;52.236;5.188;2022-09-09T04:05:55;7.63;;;5.07;;
64907;SDS011;51412;52.236;5.188;2022-09-09T04:08:23;7.13;;;4.88;;
64907;SDS011;51412;52.236;5.188;2022-09-09T04:10:52;10.13;;;5.40;;
64907;SDS011;51412;52.236;5.188;2022-09-09T04:13:23;10.07;;;4.88;;
64907;SDS011;51412;52.236;5.188;2022-09-09T04:15:50;10.27;;;5.32;;
64907;SDS011;51412;52.236;5.188;2022-09-09T04:18:18;8.95;;;5.32;;
64907;SDS011;51412;52.236;5.188;2022-09-09T04:20:45;8.80;;;4.55;;
64907;SDS011;51412;52.236;5.188;2022-09-09T04:23:12;14.18;;;5.25;;
64907;SDS011;51412;52.236;5.188;2022-09-09T04:25:42;6.93;;;4.70;;
64907;SDS011;51412;52.236;5.188;2022-09-09T04:28:11;10.00;;;4.82;;
64907;SDS011;51412;52.236;5.188;2022-09-09T04:30:38;7.22;;;4.40;;
64907;SDS011;51412;52.236;5.188;2022-09-09T04:33:05;11.02;;;5.07;;
64907;SDS011;51412;52.236;5.188;2022-09-09T04:35:32;8.38;;;4.60;;
64907;SDS011;51412;52.236;5.188;2022-09-09T04:37:59;8.50;;;5.03;;
64907;SDS011;51412;52.236;5.188;2022-09-09T04:40:27;10.52;;;4.55;;
64907;SDS011;51412;52.236;5.188;2022-09-09T04:42:54;7.05;;;4.10;;
64907;SDS011;51412;52.236;5.188;2022-09-09T04:45:22;8.88;;;4.68;;
64907;SDS011;51412;52.236;5.188;2022-09-09T04:47:49;7.28;;;4.38;;
64907;SDS011;51412;52.236;5.188;2022-09-09T04:50:15;8.77;;;4.30;;
64907;SDS011;51412;52.236;5.188;2022-09-09T04:52:42;7.93;;;4.60;;
64907;SDS011;51412;52.236;5.188;2022-09-09T04:55:08;7.43;;;4.35;;
64907;SDS011;51412;52.236;5.188;2022-09-09T04:57:35;8.30;;;4.60;;
64907;SDS011;51412;52.236;5.188;2022-09-09T05:00:02;8.60;;;4.22;;
64907;SDS011;51412;52.236;5.188;2022-09-09T05:02:31;8.57;;;4.85;;
64907;SDS011;51412;52.236;5.188;2022-09-09T05:04:58;7.13;;;4.15;;
64907;SDS011;51412;52.236;5.188;2022-09-09T05:07:26;7.68;;;4.20;;
64907;SDS011;51412;52.236;5.188;2022-09-09T05:09:54;6.38;;;4.07;;
64907;SDS011;51412;52.236;5.188;2022-09-09T05:12:21;8.52;;;3.75;;
64907;SDS011;51412;52.236;5.188;2022-09-09T05:14:49;8.98;;;4.68;;
64907;SDS011;51412;52.236;5.188;2022-09-09T05:17:15;6.53;;;4.30;;
64907;SDS011;51412;52.236;5.188;2022-09-09T05:19:44;6.13;;;3.95;;
64907;SDS011;51412;52.236;5.188;2022-09-09T05:22:10;8.73;;;4.30;;
64907;SDS011;51412;52.236;5.188;2022-09-09T05:24:37;6.72;;;4.20;;
64907;SDS011;51412;52.236;5.188;2022-09-09T05:27:04;8.63;;;4.28;;
64907;SDS011;51412;52.236;5.188;2022-09-09T05:29:31;6.32;;;4.32;;
64907;SDS011;51412;52.236;5.188;2022-09-09T05:31:58;8.50;;;3.75;;
64907;SDS011;51412;52.236;5.188;2022-09-09T05:34:25;8.77;;;4.60;;
64907;SDS011;51412;52.236;5.188;2022-09-09T05:36:53;15.35;;;4.70;;
64907;SDS011;51412;52.236;5.188;2022-09-09T05:39:19;8.65;;;4.63;;
64907;SDS011;51412;52.236;5.188;2022-09-09T05:41:46;11.27;;;4.07;;
64907;SDS011;51412;52.236;5.188;2022-09-09T05:44:12;15.27;;;4.47;;
64907;SDS011;51412;52.236;5.188;2022-09-09T05:46:39;17.50;;;5.35;;
64907;SDS011;51412;52.236;5.188;2022-09-09T05:49:06;14.45;;;4.93;;
64907;SDS011;51412;52.236;5.188;2022-09-09T05:51:33;13.02;;;4.15;;
64907;SDS011;51412;52.236;5.188;2022-09-09T05:54:01;16.67;;;4.57;;
64907;SDS011;51412;52.236;5.188;2022-09-09T05:56:28;16.83;;;4.63;;
64907;SDS011;51412;52.236;5.188;2022-09-09T05:58:55;24.85;;;4.20;;
64907;SDS011;51412;52.236;5.188;2022-09-09T06:01:23;10.27;;;3.40;;
64907;SDS011;51412;52.236;5.188;2022-09-09T06:03:51;34.47;;;4.50;;
64907;SDS011;51412;52.236;5.188;2022-09-09T06:06:19;13.75;;;4.45;;
64907;SDS011;51412;52.236;5.188;2022-09-09T06:08:47;9.50;;;4.03;;
64907;SDS011;51412;52.236;5.188;2022-09-09T06:11:18;10.82;;;4.47;;
64907;SDS011;51412;52.236;5.188;2022-09-09T06:13:47;12.23;;;2.85;;
64907;SDS011;51412;52.236;5.188;2022-09-09T06:16:16;8.00;;;3.25;;
64907;SDS011;51412;52.236;5.188;2022-09-09T06:18:44;11.15;;;4.65;;
64907;SDS011;51412;52.236;5.188;2022-09-09T06:21:14;7.57;;;3.45;;
64907;SDS011;51412;52.236;5.188;2022-09-09T06:23:42;8.70;;;3.83;;
64907;SDS011;51412;52.236;5.188;2022-09-09T06:26:10;8.27;;;3.30;;
64907;SDS011;51412;52.236;5.188;2022-09-09T06:28:39;7.55;;;3.33;;
64907;SDS011;51412;52.236;5.188;2022-09-09T06:31:07;9.60;;;4.57;;
64907;SDS011;51412;52.236;5.188;2022-09-09T06:33:36;7.97;;;3.60;;
64907;SDS011;51412;52.236;5.188;2022-09-09T06:36:06;8.82;;;4.97;;
64907;SDS011;51412;52.236;5.188;2022-09-09T06:38:36;13.07;;;4.32;;
64907;SDS011;51412;52.236;5.188;2022-09-09T06:41:02;7.90;;;4.32;;
64907;SDS011;51412;52.236;5.188;2022-09-09T06:43:30;7.22;;;3.28;;
64907;SDS011;51412;52.236;5.188;2022-09-09T06:46:02;12.73;;;4.78;;
64907;SDS011;51412;52.236;5.188;2022-09-09T06:48:30;6.65;;;3.35;;
64907;SDS011;51412;52.236;5.188;2022-09-09T06:51:01;10.13;;;3.78;;
64907;SDS011;51412;52.236;5.188;2022-09-09T06:53:28;9.35;;;3.83;;
64907;SDS011;51412;52.236;5.188;2022-09-09T06:55:56;10.15;;;3.63;;
64907;SDS011;51412;52.236;5.188;2022-09-09T06:58:22;11.35;;;4.45;;
64907;SDS011;51412;52.236;5.188;2022-09-09T07:00:49;7.75;;;3.40;;
64907;SDS011;51412;52.236;5.188;2022-09-09T07:03:17;7.20;;;3.53;;
64907;SDS011;51412;52.236;5.188;2022-09-09T07:05:46;7.75;;;3.80;;
64907;SDS011;51412;52.236;5.188;2022-09-09T07:08:20;8.73;;;3.30;;
64907;SDS011;51412;52.236;5.188;2022-09-09T07:10:46;8.15;;;3.80;;
64907;SDS011;51412;52.236;5.188;2022-09-09T07:13:13;11.90;;;3.85;;
64907;SDS011;51412;52.236;5.188;2022-09-09T07:15:40;10.68;;;3.65;;
64907;SDS011;51412;52.236;5.188;2022-09-09T07:18:07;5.15;;;2.65;;
64907;SDS011;51412;52.236;5.188;2022-09-09T07:20:36;7.57;;;3.25;;
64907;SDS011;51412;52.236;5.188;2022-09-09T07:23:03;7.63;;;3.10;;
64907;SDS011;51412;52.236;5.188;2022-09-09T07:25:29;4.97;;;2.80;;
64907;SDS011;51412;52.236;5.188;2022-09-09T07:27:56;17.05;;;4.22;;
64907;SDS011;51412;52.236;5.188;2022-09-09T07:30:22;9.20;;;3.83;;
64907;SDS011;51412;52.236;5.188;2022-09-09T07:32:50;7.85;;;3.78;;
64907;SDS011;51412;52.236;5.188;2022-09-09T07:35:17;7.97;;;3.72;;
64907;SDS011;51412;52.236;5.188;2022-09-09T07:37:45;9.63;;;3.92;;
64907;SDS011;51412;52.236;5.188;2022-09-09T07:40:11;7.95;;;4.32;;
64907;SDS011;51412;52.236;5.188;2022-09-09T07:42:38;9.43;;;4.07;;
64907;SDS011;51412;52.236;5.188;2022-09-09T07:45:05;13.43;;;4.45;;
64907;SDS011;51412;52.236;5.188;2022-09-09T07:47:33;13.55;;;4.32;;
64907;SDS011;51412;52.236;5.188;2022-09-09T07:50:00;7.93;;;3.85;;
64907;SDS011;51412;52.236;5.188;2022-09-09T07:52:26;10.48;;;4.40;;
64907;SDS011;51412;52.236;5.188;2022-09-09T07:54:55;8.02;;;4.03;;
64907;SDS011;51412;52.236;5.188;2022-09-09T07:57:22;9.70;;;4.22;;
64907;SDS011;51412;52.236;5.188;2022-09-09T07:59:48;10.13;;;4.90;;
64907;SDS011;51412;52.236;5.188;2022-09-09T08:02:15;9.45;;;4.38;;
64907;SDS011;51412;52.236;5.188;2022-09-09T08:04:42;10.70;;;4.18;;
64907;SDS011;51412;52.236;5.188;2022-09-09T08:07:09;12.07;;;4.25;;
64907;SDS011;51412;52.236;5.188;2022-09-09T08:09:35;11.38;;;3.90;;
64907;SDS011;51412;52.236;5.188;2022-09-09T08:12:03;10.23;;;4.35;;
64907;SDS011;51412;52.236;5.188;2022-09-09T08:14:31;6.15;;;3.85;;
64907;SDS011;51412;52.236;5.188;2022-09-09T08:16:58;9.95;;;4.43;;
64907;SDS011;51412;52.236;5.188;2022-09-09T08:19:24;11.30;;;4.45;;
64907;SDS011;51412;52.236;5.188;2022-09-09T08:21:54;10.48;;;4.13;;
64907;SDS011;51412;52.236;5.188;2022-09-09T08:24:20;15.23;;;4.65;;
64907;SDS011;51412;52.236;5.188;2022-09-09T08:26:48;11.05;;;4.45;;
64907;SDS011;51412;52.236;5.188;2022-09-09T08:29:16;11.13;;;4.03;;
64907;SDS011;51412;52.236;5.188;2022-09-09T08:31:44;7.35;;;4.03;;
64907;SDS011;51412;52.236;5.188;2022-09-09T08:34:12;8.23;;;4.50;;
64907;SDS011;51412;52.236;5.188;2022-09-09T08:36:41;8.68;;;4.50;;
64907;SDS011;51412;52.236;5.188;2022-09-09T08:39:09;8.25;;;4.03;;
64907;SDS011;51412;52.236;5.188;2022-09-09T08:41:47;8.90;;;4.03;;
64907;SDS011;51412;52.236;5.188;2022-09-09T08:44:31;13.50;;;3.95;;
64907;SDS011;51412;52.236;5.188;2022-09-09T08:47:09;8.57;;;3.88;;
64907;SDS011;51412;52.236;5.188;2022-09-09T08:49:48;8.73;;;3.50;;
64907;SDS011;51412;52.236;5.188;2022-09-09T08:52:27;7.38;;;4.07;;
64907;SDS011;51412;52.236;5.188;2022-09-09T08:54:56;5.90;;;3.55;;
64907;SDS011;51412;52.236;5.188;2022-09-09T08:57:28;7.43;;;3.80;;
64907;SDS011;51412;52.236;5.188;2022-09-09T08:59:59;8.02;;;3.50;;
64907;SDS011;51412;52.236;5.188;2022-09-09T09:02:27;6.82;;;4.03;;
64907;SDS011;51412;52.236;5.188;2022-09-09T09:05:06;9.30;;;3.88;;
64907;SDS011;51412;52.236;5.188;2022-09-09T09:07:48;8.40;;;3.55;;
64907;SDS011;51412;52.236;5.188;2022-09-09T09:10:29;9.38;;;4.22;;
64907;SDS011;51412;52.236;5.188;2022-09-09T09:13:07;8.60;;;3.65;;
64907;SDS011;51412;52.236;5.188;2022-09-09T09:15:40;7.70;;;3.85;;
64907;SDS011;51412;52.236;5.188;2022-09-09T09:18:10;9.05;;;4.25;;
64907;SDS011;51412;52.236;5.188;2022-09-09T09:20:42;13.25;;;3.90;;
64907;SDS011;51412;52.236;5.188;2022-09-09T09:23:17;7.47;;;3.75;;
64907;SDS011;51412;52.236;5.188;2022-09-09T09:25:48;7.57;;;3.92;;
64907;SDS011;51412;52.236;5.188;2022-09-09T09:28:17;9.38;;;3.63;;
64907;SDS011;51412;52.236;5.188;2022-09-09T09:30:46;6.65;;;3.30;;
64907;SDS011;51412;52.236;5.188;2022-09-09T09:33:19;8.90;;;3.95;;
64907;SDS011;51412;52.236;5.188;2022-09-09T09:35:48;9.75;;;4.03;;
64907;SDS011;51412;52.236;5.188;2022-09-09T09:38:19;11.88;;;4.85;;
64907;SDS011;51412;52.236;5.188;2022-09-09T09:40:50;10.60;;;4.60;;
64907;SDS011;51412;52.236;5.188;2022-09-09T09:43:21;7.97;;;4.20;;
64907;SDS011;51412;52.236;5.188;2022-09-09T09:45:54;12.75;;;4.30;;
64907;SDS011;51412;52.236;5.188;2022-09-09T09:48:23;11.27;;;4.13;;
64907;SDS011;51412;52.236;5.188;2022-09-09T09:50:50;7.93;;;3.83;;
64907;SDS011;51412;52.236;5.188;2022-09-09T09:53:20;13.00;;;4.78;;
64907;SDS011;51412;52.236;5.188;2022-09-09T09:55:51;9.18;;;3.97;;
64907;SDS011;51412;52.236;5.188;2022-09-09T09:58:20;7.95;;;3.90;;
64907;SDS011;51412;52.236;5.188;2022-09-09T10:00:47;14.23;;;4.68;;
64907;SDS011;51412;52.236;5.188;2022-09-09T10:03:21;8.65;;;3.95;;
64907;SDS011;51412;52.236;5.188;2022-09-09T10:05:49;14.70;;;4.03;;
64907;SDS011;51412;52.236;5.188;2022-09-09T10:08:16;12.38;;;4.13;;
64907;SDS011;51412;52.236;5.188;2022-09-09T10:10:50;10.05;;;3.92;;
64907;SDS011;51412;52.236;5.188;2022-09-09T10:13:41;12.63;;;4.57;;
64907;SDS011;51412;52.236;5.188;2022-09-09T10:16:18;8.93;;;4.00;;
64907;SDS011;51412;52.236;5.188;2022-09-09T10:18:58;9.20;;;4.00;;
64907;SDS011;51412;52.236;5.188;2022-09-09T10:27:16;12.07;;;4.30;;
64907;SDS011;51412;52.236;5.188;2022-09-09T10:30:00;14.27;;;4.35;;
64907;SDS011;51412;52.236;5.188;2022-09-09T10:32:37;9.88;;;4.07;;
64907;SDS011;51412;52.236;5.188;2022-09-09T10:37:42;8.82;;;4.35;;
64907;SDS011;51412;52.236;5.188;2022-09-09T10:40:26;10.35;;;4.13;;
64907;SDS011;51412;52.236;5.188;2022-09-09T10:43:00;11.02;;;3.85;;
64907;SDS011;51412;52.236;5.188;2022-09-09T10:45:34;14.07;;;4.70;;
64907;SDS011;51412;52.236;5.188;2022-09-09T10:48:14;9.38;;;4.13;;
64907;SDS011;51412;52.236;5.188;2022-09-09T10:50:59;9.07;;;4.90;;
64907;SDS011;51412;52.236;5.188;2022-09-09T10:53:37;15.80;;;5.40;;
64907;SDS011;51412;52.236;5.188;2022-09-09T10:56:15;10.55;;;4.57;;
64907;SDS011;51412;52.236;5.188;2022-09-09T10:58:44;8.50;;;4.07;;
64907;SDS011;51412;52.236;5.188;2022-09-09T11:01:18;7.50;;;4.65;;
64907;SDS011;51412;52.236;5.188;2022-09-09T11:03:50;9.98;;;4.00;;
64907;SDS011;51412;52.236;5.188;2022-09-09T11:06:23;15.43;;;5.03;;
64907;SDS011;51412;52.236;5.188;2022-09-09T11:08:55;8.05;;;3.80;;
64907;SDS011;51412;52.236;5.188;2022-09-09T11:11:27;10.70;;;4.68;;
64907;SDS011;51412;52.236;5.188;2022-09-09T11:13:59;6.63;;;3.75;;
64907;SDS011;51412;52.236;5.188;2022-09-09T11:19:04;9.10;;;3.45;;
64907;SDS011;51412;52.236;5.188;2022-09-09T11:21:43;9.35;;;3.80;;
64907;SDS011;51412;52.236;5.188;2022-09-09T11:24:13;8.35;;;4.07;;
64907;SDS011;51412;52.236;5.188;2022-09-09T11:26:47;10.77;;;4.60;;
64907;SDS011;51412;52.236;5.188;2022-09-09T11:29:32;6.85;;;3.50;;
64907;SDS011;51412;52.236;5.188;2022-09-09T11:32:12;6.72;;;3.63;;
64907;SDS011;51412;52.236;5.188;2022-09-09T11:34:53;7.13;;;3.83;;
64907;SDS011;51412;52.236;5.188;2022-09-09T11:37:35;10.23;;;4.32;;
64907;SDS011;51412;52.236;5.188;2022-09-09T11:40:19;10.55;;;4.38;;
64907;SDS011;51412;52.236;5.188;2022-09-09T11:43:00;6.32;;;3.63;;
64907;SDS011;51412;52.236;5.188;2022-09-09T11:45:30;11.10;;;4.40;;
64907;SDS011;51412;52.236;5.188;2022-09-09T11:47:58;8.07;;;3.67;;
64907;SDS011;51412;52.236;5.188;2022-09-09T11:50:27;8.20;;;4.03;;
64907;SDS011;51412;52.236;5.188;2022-09-09T11:56:05;9.85;;;3.55;;
64907;SDS011;51412;52.236;5.188;2022-09-09T11:58:38;8.43;;;4.03;;
64907;SDS011;51412;52.236;5.188;2022-09-09T12:01:13;8.60;;;3.70;;
64907;SDS011;51412;52.236;5.188;2022-09-09T12:03:42;9.35;;;4.00;;
64907;SDS011;51412;52.236;5.188;2022-09-09T12:06:14;6.63;;;3.25;;
64907;SDS011;51412;52.236;5.188;2022-09-09T12:08:47;6.53;;;3.20;;
64907;SDS011;51412;52.236;5.188;2022-09-09T12:11:24;6.45;;;3.72;;
64907;SDS011;51412;52.236;5.188;2022-09-09T12:13:52;7.38;;;3.53;;
64907;SDS011;51412;52.236;5.188;2022-09-09T12:16:30;7.00;;;3.92;;
64907;SDS011;51412;52.236;5.188;2022-09-09T12:19:03;7.53;;;3.40;;
64907;SDS011;51412;52.236;5.188;2022-09-09T12:21:34;8.05;;;4.03;;
64907;SDS011;51412;52.236;5.188;2022-09-09T12:24:08;6.45;;;3.30;;
64907;SDS011;51412;52.236;5.188;2022-09-09T12:26:37;6.35;;;3.40;;
64907;SDS011;51412;52.236;5.188;2022-09-09T12:29:12;6.40;;;3.83;;
64907;SDS011;51412;52.236;5.188;2022-09-09T12:31:51;7.45;;;3.30;;
64907;SDS011;51412;52.236;5.188;2022-09-09T12:34:28;9.57;;;3.90;;
64907;SDS011;51412;52.236;5.188;2022-09-09T12:37:03;5.68;;;3.42;;
64907;SDS011;51412;52.236;5.188;2022-09-09T12:39:37;10.97;;;4.00;;
64907;SDS011;51412;52.236;5.188;2022-09-09T12:42:15;7.47;;;3.65;;
64907;SDS011;51412;52.236;5.188;2022-09-09T12:44:50;8.50;;;4.20;;
64907;SDS011;51412;52.236;5.188;2022-09-09T12:47:22;9.43;;;4.15;;
64907;SDS011;51412;52.236;5.188;2022-09-09T12:49:54;6.27;;;4.03;;
64907;SDS011;51412;52.236;5.188;2022-09-09T12:52:23;7.60;;;4.03;;
64907;SDS011;51412;52.236;5.188;2022-09-09T12:57:23;6.72;;;3.67;;
64907;SDS011;51412;52.236;5.188;2022-09-09T12:59:52;6.65;;;3.80;;
64907;SDS011;51412;52.236;5.188;2022-09-09T13:02:29;8.68;;;4.38;;
64907;SDS011;51412;52.236;5.188;2022-09-09T13:05:05;8.38;;;4.72;;
64907;SDS011;51412;52.236;5.188;2022-09-09T13:07:33;7.82;;;3.92;;
64907;SDS011;51412;52.236;5.188;2022-09-09T13:10:01;9.43;;;3.90;;
64907;SDS011;51412;52.236;5.188;2022-09-09T13:12:27;7.03;;;4.10;;
64907;SDS011;51412;52.236;5.188;2022-09-09T13:14:55;7.40;;;4.10;;
64907;SDS011;51412;52.236;5.188;2022-09-09T13:17:23;6.15;;;4.13;;
64907;SDS011;51412;52.236;5.188;2022-09-09T13:19:54;6.22;;;3.90;;
64907;SDS011;51412;52.236;5.188;2022-09-09T13:22:22;10.02;;;4.40;;
64907;SDS011;51412;52.236;5.188;2022-09-09T13:25:00;6.80;;;3.80;;
64907;SDS011;51412;52.236;5.188;2022-09-09T13:29:56;7.72;;;4.78;;
64907;SDS011;51412;52.236;5.188;2022-09-09T13:32:23;7.40;;;4.20;;
64907;SDS011;51412;52.236;5.188;2022-09-09T13:34:52;7.38;;;4.50;;
64907;SDS011;51412;52.236;5.188;2022-09-09T13:37:20;13.00;;;4.20;;
64907;SDS011;51412;52.236;5.188;2022-09-09T13:42:24;7.40;;;4.10;;
64907;SDS011;51412;52.236;5.188;2022-09-09T13:44:52;8.07;;;4.35;;
64907;SDS011;51412;52.236;5.188;2022-09-09T13:47:20;8.10;;;4.40;;
64907;SDS011;51412;52.236;5.188;2022-09-09T13:49:52;7.15;;;4.10;;
64907;SDS011;51412;52.236;5.188;2022-09-09T13:52:19;7.95;;;3.97;;
64907;SDS011;51412;52.236;5.188;2022-09-09T13:54:47;7.22;;;4.00;;
64907;SDS011;51412;52.236;5.188;2022-09-09T13:57:15;6.18;;;4.03;;
64907;SDS011;51412;52.236;5.188;2022-09-09T13:59:45;6.55;;;4.05;;
64907;SDS011;51412;52.236;5.188;2022-09-09T14:02:12;7.28;;;5.07;;
64907;SDS011;51412;52.236;5.188;2022-09-09T14:04:38;7.43;;;3.88;;
64907;SDS011;51412;52.236;5.188;2022-09-09T14:07:08;7.97;;;4.07;;
64907;SDS011;51412;52.236;5.188;2022-09-09T14:09:37;8.15;;;3.72;;
64907;SDS011;51412;52.236;5.188;2022-09-09T14:12:04;7.47;;;4.30;;
64907;SDS011;51412;52.236;5.188;2022-09-09T14:14:30;6.75;;;3.60;;
64907;SDS011;51412;52.236;5.188;2022-09-09T14:16:58;9.25;;;4.40;;
64907;SDS011;51412;52.236;5.188;2022-09-09T14:19:25;5.75;;;3.35;;
64907;SDS011;51412;52.236;5.188;2022-09-09T14:21:51;7.07;;;4.20;;
64907;SDS011;51412;52.236;5.188;2022-09-09T14:24:18;8.18;;;4.43;;
64907;SDS011;51412;52.236;5.188;2022-09-09T14:26:44;7.53;;;3.80;;
64907;SDS011;51412;52.236;5.188;2022-09-09T14:29:11;5.00;;;3.58;;
64907;SDS011;51412;52.236;5.188;2022-09-09T14:31:37;8.95;;;4.40;;
64907;SDS011;51412;52.236;5.188;2022-09-09T14:34:05;6.57;;;3.85;;
64907;SDS011;51412;52.236;5.188;2022-09-09T14:36:32;8.25;;;4.43;;
64907;SDS011;51412;52.236;5.188;2022-09-09T14:38:58;8.05;;;3.92;;
64907;SDS011;51412;52.236;5.188;2022-09-09T14:41:25;7.90;;;4.43;;
64907;SDS011;51412;52.236;5.188;2022-09-09T14:43:51;6.32;;;3.83;;
64907;SDS011;51412;52.236;5.188;2022-09-09T14:46:19;6.13;;;3.85;;
64907;SDS011;51412;52.236;5.188;2022-09-09T14:48:46;6.22;;;4.35;;
64907;SDS011;51412;52.236;5.188;2022-09-09T14:51:15;8.07;;;3.85;;
64907;SDS011;51412;52.236;5.188;2022-09-09T14:53:44;8.30;;;4.40;;
64907;SDS011;51412;52.236;5.188;2022-09-09T14:56:12;7.97;;;4.07;;
64907;SDS011;51412;52.236;5.188;2022-09-09T14:58:40;9.02;;;4.82;;
64907;SDS011;51412;52.236;5.188;2022-09-09T15:01:07;8.40;;;4.13;;
64907;SDS011;51412;52.236;5.188;2022-09-09T15:03:35;9.55;;;4.80;;
64907;SDS011;51412;52.236;5.188;2022-09-09T15:06:06;7.72;;;4.15;;
64907;SDS011;51412;52.236;5.188;2022-09-09T15:08:35;7.15;;;3.70;;
64907;SDS011;51412;52.236;5.188;2022-09-09T15:11:03;12.35;;;4.18;;
64907;SDS011;51412;52.236;5.188;2022-09-09T15:13:32;6.53;;;4.18;;
64907;SDS011;51412;52.236;5.188;2022-09-09T15:16:03;10.55;;;3.97;;
64907;SDS011;51412;52.236;5.188;2022-09-09T15:18:30;12.15;;;4.03;;
64907;SDS011;51412;52.236;5.188;2022-09-09T15:20:58;7.43;;;2.78;;
64907;SDS011;51412;52.236;5.188;2022-09-09T15:23:24;2.50;;;2.30;;
64907;SDS011;51412;52.236;5.188;2022-09-09T15:25:52;5.78;;;2.50;;
64907;SDS011;51412;52.236;5.188;2022-09-09T15:28:20;5.05;;;2.70;;
64907;SDS011;51412;52.236;5.188;2022-09-09T15:30:48;3.47;;;2.50;;
64907;SDS011;51412;52.236;5.188;2022-09-09T15:33:14;6.18;;;3.05;;